createdAt,value
2022-09-20T00:02:10.416Z,76.5
2022-09-20T00:05:10.486Z,76.5
2022-09-20T00:08:10.412Z,76.5
2022-09-20T00:11:10.405Z,76.5
2022-09-20T00:14:10.418Z,76.5
2022-09-20T00:17:10.407Z,76.5
2022-09-20T00:20:10.412Z,76.5
2022-09-20T00:23:10.422Z,76.5
2022-09-20T00:26:10.404Z,76.5
2022-09-20T00:29:10.426Z,76.5
2022-09-20T00:32:10.482Z,76.5
2022-09-20T00:35:10.408Z,76.5
2022-09-20T00:38:10.406Z,77
2022-09-20T00:41:10.417Z,76.5
2022-09-20T00:44:10.416Z,77
2022-09-20T00:47:10.420Z,77
2022-09-20T00:50:10.406Z,77.5
2022-09-20T00:53:10.418Z,77.5
2022-09-20T00:56:10.412Z,77.5
2022-09-20T00:59:10.430Z,77.5
2022-09-20T01:02:10.457Z,77.5
2022-09-20T01:05:10.417Z,77.5
2022-09-20T01:08:10.416Z,77.5
2022-09-20T01:11:10.413Z,77.5
2022-09-20T01:14:10.436Z,77.5
2022-09-20T01:17:10.423Z,77.5
2022-09-20T01:20:10.404Z,77.5
2022-09-20T01:23:10.416Z,77.5
2022-09-20T01:26:10.415Z,77.5
2022-09-20T01:29:10.436Z,77.5
2022-09-20T01:32:10.437Z,77.5
2022-09-20T01:35:10.412Z,77.5
2022-09-20T01:38:10.415Z,77.5
2022-09-20T01:41:10.416Z,77.5
2022-09-20T01:44:10.420Z,77.5
2022-09-20T01:47:10.422Z,77.5
2022-09-20T01:50:10.420Z,77.5
2022-09-20T01:53:10.427Z,77.5
2022-09-20T01:56:10.418Z,77.5
2022-09-20T01:59:23.519Z,77.5
2022-09-20T02:02:10.532Z,77.5
2022-09-20T02:05:10.424Z,77.5
2022-09-20T02:08:10.425Z,77.5
2022-09-20T02:11:10.420Z,77.5
2022-09-20T02:14:10.438Z,77.5
2022-09-20T02:17:10.417Z,77.5
2022-09-20T02:20:10.419Z,77.5
2022-09-20T02:23:10.498Z,77.5
2022-09-20T02:26:10.419Z,77.5
2022-09-20T02:29:10.446Z,77.5
2022-09-20T02:32:10.438Z,77.5
2022-09-20T02:35:10.412Z,77.5
2022-09-20T02:38:10.417Z,77.5
2022-09-20T02:41:10.423Z,77.5
2022-09-20T02:44:10.447Z,78.5
2022-09-20T02:47:10.417Z,78.5
2022-09-20T02:50:10.419Z,78.5
2022-09-20T02:53:10.434Z,78.5
2022-09-20T02:56:10.419Z,78.5
2022-09-20T02:59:10.427Z,78.5
2022-09-20T03:02:10.496Z,78.5
2022-09-20T03:05:10.421Z,78.5
2022-09-20T03:08:10.416Z,78.5
2022-09-20T03:11:10.424Z,78.5
2022-09-20T03:14:10.489Z,78.5
2022-09-20T03:17:10.444Z,78.5
2022-09-20T03:20:10.425Z,78.5
2022-09-20T03:23:10.433Z,78.5
2022-09-20T03:26:10.421Z,78.5
2022-09-20T03:29:10.456Z,78.5
2022-09-20T03:32:10.527Z,78.5
2022-09-20T03:35:10.418Z,78.5
2022-09-20T03:38:10.447Z,78.5
2022-09-20T03:41:10.426Z,78.5
2022-09-20T03:44:10.442Z,78.5
2022-09-20T03:47:10.423Z,78.5
2022-09-20T03:50:10.439Z,78.5
2022-09-20T03:53:10.440Z,78.5
2022-09-20T03:56:10.416Z,78.5
2022-09-20T03:59:10.437Z,78.5
2022-09-20T04:02:10.526Z,78.5
2022-09-20T04:05:10.418Z,78.5
2022-09-20T04:08:10.420Z,78.5
2022-09-20T04:11:10.427Z,78.5
2022-09-20T04:14:11.458Z,78.5
2022-09-20T04:17:10.423Z,78.5
2022-09-20T04:20:10.419Z,78.5
2022-09-20T04:23:10.425Z,78.5
2022-09-20T04:26:10.420Z,78.5
2022-09-20T04:29:10.449Z,78.5
2022-09-20T04:32:10.462Z,78.5
2022-09-20T04:35:10.419Z,79
2022-09-20T04:38:10.445Z,79
2022-09-20T04:41:10.417Z,79.5
2022-09-20T04:44:10.447Z,79
2022-09-20T04:47:10.442Z,79
2022-09-20T04:50:10.428Z,78.5
2022-09-20T04:53:10.422Z,78.5
2022-09-20T04:56:10.429Z,78.5
2022-09-20T04:59:10.456Z,78.5
2022-09-20T05:02:10.486Z,78.5
2022-09-20T05:05:10.424Z,78.5
2022-09-20T05:08:10.430Z,78.5
2022-09-20T05:11:10.432Z,78.5
2022-09-20T05:14:10.456Z,78.5
2022-09-20T05:17:10.459Z,78.5
2022-09-20T05:20:10.449Z,78.5
2022-09-20T05:23:10.425Z,79
2022-09-20T05:26:10.446Z,79.5
2022-09-20T05:29:10.441Z,79.5
2022-09-20T05:32:10.461Z,79.5
2022-09-20T05:35:10.456Z,79.5
2022-09-20T05:38:10.430Z,79.5
2022-09-20T05:41:10.426Z,79.5
2022-09-20T05:44:10.440Z,79.5
2022-09-20T05:47:10.438Z,79.5
2022-09-20T05:50:10.439Z,79.5
2022-09-20T05:53:10.428Z,79.5
2022-09-20T05:56:10.430Z,79.5
2022-09-20T05:59:11.372Z,79.5
2022-09-20T06:02:10.489Z,79.5
2022-09-20T06:05:10.436Z,79.5
2022-09-20T06:08:10.433Z,79.5
2022-09-20T06:11:10.433Z,79.5
2022-09-20T06:14:10.428Z,79.5
2022-09-20T06:17:10.460Z,79
2022-09-20T06:20:10.439Z,79
2022-09-20T06:23:10.429Z,79
2022-09-20T06:26:10.433Z,79
2022-09-20T06:29:10.481Z,79
2022-09-20T06:32:10.455Z,79
2022-09-20T06:35:10.460Z,79
2022-09-20T06:38:10.460Z,79
2022-09-20T06:41:10.456Z,78.5
2022-09-20T06:44:10.440Z,78.5
2022-09-20T06:47:10.503Z,78.5
2022-09-20T06:50:10.449Z,78.5
2022-09-20T06:53:10.448Z,78.5
2022-09-20T06:56:10.444Z,78.5
2022-09-20T06:59:10.441Z,78.5
2022-09-20T07:02:10.489Z,78.5
2022-09-20T07:05:10.432Z,78.5
2022-09-20T07:08:10.438Z,78.5
2022-09-20T07:11:10.471Z,78.5
2022-09-20T07:14:10.456Z,78.5
2022-09-20T07:17:10.450Z,78
2022-09-20T07:20:10.447Z,78
2022-09-20T07:23:10.446Z,78
2022-09-20T07:26:10.450Z,78
2022-09-20T07:29:10.437Z,78
2022-09-20T07:32:10.456Z,78
2022-09-20T07:35:10.451Z,78
2022-09-20T07:38:10.446Z,78
2022-09-20T07:41:10.449Z,78
2022-09-20T07:44:10.437Z,78
2022-09-20T07:47:10.485Z,78
2022-09-20T07:50:10.444Z,78
2022-09-20T07:53:10.448Z,78
2022-09-20T07:56:10.468Z,78
2022-09-20T07:59:10.446Z,77.5
2022-09-20T08:02:10.486Z,77.5
2022-09-20T08:05:10.442Z,77.5
2022-09-20T08:08:10.449Z,77.5
2022-09-20T08:11:10.454Z,77.5
2022-09-20T08:14:10.445Z,77.5
2022-09-20T08:17:10.466Z,77
2022-09-20T08:20:10.454Z,77
2022-09-20T08:23:22.819Z,77
2022-09-20T08:26:10.447Z,77
2022-09-20T08:29:10.456Z,77
2022-09-20T08:32:10.464Z,77
2022-09-20T08:35:10.457Z,77
2022-09-20T08:41:10.455Z,76.5
2022-09-20T08:44:10.463Z,76.5
2022-09-20T08:47:10.490Z,75.5
2022-09-20T08:50:11.471Z,75
2022-09-20T08:53:10.443Z,75
2022-09-20T08:56:10.480Z,74.5
2022-09-20T08:59:10.471Z,74.5
2022-09-20T09:02:10.505Z,74.5
2022-09-20T09:05:10.472Z,74.5
2022-09-20T09:08:10.475Z,74
2022-09-20T09:11:10.454Z,74
2022-09-20T09:14:10.468Z,74
2022-09-20T09:17:10.527Z,74
2022-09-20T09:20:10.474Z,73.5
2022-09-20T09:23:10.469Z,73.5
2022-09-20T09:26:10.475Z,74
2022-09-20T09:29:10.474Z,74
2022-09-20T09:32:10.566Z,74
2022-09-20T09:35:10.461Z,73
2022-09-20T09:38:10.471Z,72.5
2022-09-20T09:41:10.489Z,72.5
2022-09-20T09:44:10.483Z,72
2022-09-20T09:47:10.487Z,71.5
2022-09-20T09:50:10.464Z,71
2022-09-20T09:53:10.464Z,71
2022-09-20T09:56:13.972Z,71.5
2022-09-20T09:59:10.478Z,71
2022-09-20T10:02:10.502Z,70.5
2022-09-20T10:05:10.470Z,70.5
2022-09-20T10:08:10.469Z,69.5
2022-09-20T10:11:10.488Z,69.5
2022-09-20T10:14:10.496Z,68.5
2022-09-20T10:17:10.483Z,68
2022-09-20T10:20:10.467Z,68
2022-09-20T10:23:45.405Z,67.5
2022-09-20T10:26:10.487Z,67.5
2022-09-20T10:29:10.491Z,67.5
2022-09-20T10:32:12.865Z,67.5
2022-09-20T10:35:10.484Z,68
2022-09-20T10:38:10.479Z,68
2022-09-20T10:41:10.482Z,68.5
2022-09-20T10:44:10.479Z,68
2022-09-20T10:47:10.552Z,68
2022-09-20T10:50:10.495Z,66.5
2022-09-20T10:53:10.493Z,66
2022-09-20T10:56:10.489Z,66.5
2022-09-20T10:59:10.484Z,66.5
2022-09-20T11:02:10.566Z,66.5
2022-09-20T11:05:10.479Z,66.5
2022-09-20T11:08:10.480Z,66.5
2022-09-20T11:11:10.488Z,66
2022-09-20T11:14:10.483Z,66
2022-09-20T11:17:10.572Z,65.5
2022-09-20T11:20:10.539Z,65.5
2022-09-20T11:23:10.484Z,65.5
2022-09-20T11:26:10.507Z,65
2022-09-20T11:29:10.488Z,65
2022-09-20T11:32:13.443Z,65
2022-09-20T11:35:10.483Z,65
2022-09-20T11:38:10.501Z,65
2022-09-20T11:41:10.505Z,65
2022-09-20T11:44:10.492Z,65
2022-09-20T11:47:10.494Z,65
2022-09-20T11:50:10.503Z,65
2022-09-20T11:53:10.495Z,64.5
2022-09-20T11:56:10.494Z,63.5
2022-09-20T11:59:10.483Z,63.5
2022-09-20T12:02:10.626Z,63.5
2022-09-20T12:05:10.511Z,63.5
2022-09-20T12:08:10.569Z,63.5
2022-09-20T12:11:10.501Z,64
2022-09-20T12:14:10.486Z,63.5
2022-09-20T12:17:10.494Z,63.5
2022-09-20T12:20:10.487Z,64
2022-09-20T12:23:10.499Z,64
2022-09-20T12:26:10.510Z,64
2022-09-20T12:29:10.486Z,64.5
2022-09-20T12:32:10.493Z,64.5
2022-09-20T12:35:10.495Z,64.5
2022-09-20T12:38:10.502Z,64.5
2022-09-20T12:41:10.498Z,64.5
2022-09-20T12:44:10.495Z,64.5
2022-09-20T12:47:10.525Z,64.5
2022-09-20T12:50:10.489Z,64.5
2022-09-20T12:53:10.508Z,65
2022-09-20T12:56:10.513Z,65.5
2022-09-20T12:59:10.490Z,66
2022-09-20T13:02:10.526Z,66
2022-09-20T13:05:10.486Z,66.5
2022-09-20T13:08:10.512Z,67
2022-09-20T13:11:10.504Z,67
2022-09-20T13:14:10.496Z,67
2022-09-20T13:17:10.568Z,67
2022-09-20T13:20:10.520Z,67.5
2022-09-20T13:23:10.501Z,67.5
2022-09-20T13:26:10.493Z,68
2022-09-20T13:29:10.500Z,68
2022-09-20T13:32:10.495Z,68
2022-09-20T13:35:10.495Z,68
2022-09-20T13:38:10.489Z,67.5
2022-09-20T13:41:10.499Z,68
2022-09-20T13:44:10.491Z,67.5
2022-09-20T13:47:10.501Z,67.5
2022-09-20T13:50:10.493Z,67.5
2022-09-20T13:53:10.503Z,67.5
2022-09-20T13:56:10.528Z,68
2022-09-20T13:59:10.505Z,67.5
2022-09-20T14:02:10.543Z,67.5
2022-09-20T14:05:10.501Z,67.5
2022-09-20T14:08:10.491Z,68
2022-09-20T14:11:10.510Z,67.5
2022-09-20T14:14:10.500Z,67.5
2022-09-20T14:17:10.526Z,67.5
2022-09-20T14:20:10.567Z,67.5
2022-09-20T14:23:10.505Z,67.5
2022-09-20T14:26:10.524Z,67.5
2022-09-20T14:29:10.523Z,67.5
2022-09-20T14:32:10.532Z,67.5
2022-09-20T14:35:10.524Z,67.5
2022-09-20T14:38:10.499Z,67.5
2022-09-20T14:41:10.508Z,67.5
2022-09-20T14:44:10.522Z,67.5
2022-09-20T14:47:10.514Z,67.5
2022-09-20T14:50:10.516Z,67.5
2022-09-20T14:53:10.522Z,67.5
2022-09-20T14:56:10.521Z,67.5
2022-09-20T14:59:10.526Z,67.5
2022-09-20T15:02:10.530Z,67.5
2022-09-20T15:05:10.522Z,67.5
2022-09-20T15:08:10.504Z,67.5
2022-09-20T15:11:10.531Z,67.5
2022-09-20T15:14:10.516Z,67.5
2022-09-20T15:17:10.526Z,67.5
2022-09-20T15:20:10.519Z,67
2022-09-20T15:23:10.522Z,67
2022-09-20T15:26:10.521Z,67
2022-09-20T15:29:10.511Z,67
2022-09-20T15:32:10.520Z,67
2022-09-20T15:35:10.528Z,67
2022-09-20T15:38:10.525Z,67
2022-09-20T15:41:10.530Z,67
2022-09-20T15:44:10.515Z,67
2022-09-20T15:47:14.071Z,67
2022-09-20T15:50:10.530Z,67
2022-09-20T15:53:10.528Z,67
2022-09-20T15:56:10.533Z,67
2022-09-20T15:59:10.530Z,67
2022-09-20T16:02:10.572Z,67
2022-09-20T16:05:10.533Z,67
2022-09-20T16:08:10.534Z,67
2022-09-20T16:11:10.540Z,67
2022-09-20T16:14:10.540Z,67
2022-09-20T16:17:10.538Z,66.5
2022-09-20T16:20:10.532Z,66.5
2022-09-20T16:23:10.515Z,66.5
2022-09-20T16:26:10.531Z,67
2022-09-20T16:29:10.534Z,67
2022-09-20T16:32:10.535Z,67
2022-09-20T16:35:10.529Z,67
2022-09-20T16:38:10.510Z,67
2022-09-20T16:41:10.537Z,67
2022-09-20T16:44:10.536Z,67
2022-09-20T16:47:10.514Z,67
2022-09-20T16:50:10.534Z,67
2022-09-20T16:53:10.531Z,67.5
2022-09-20T16:56:10.540Z,67.5
2022-09-20T16:59:10.525Z,67.5
2022-09-20T17:02:10.533Z,67.5
2022-09-20T17:05:10.520Z,67.5
2022-09-20T17:08:10.537Z,67.5
2022-09-20T17:11:10.531Z,67.5
2022-09-20T17:14:10.530Z,67.5
2022-09-20T17:17:10.540Z,67.5
2022-09-20T17:20:10.537Z,67.5
2022-09-20T17:23:10.534Z,67.5
2022-09-20T17:26:10.534Z,67.5
2022-09-20T17:29:10.533Z,67.5
2022-09-20T17:32:10.576Z,67.5
2022-09-20T17:35:10.533Z,67.5
2022-09-20T17:38:10.533Z,67.5
2022-09-20T17:41:10.532Z,67.5
2022-09-20T17:44:10.543Z,67.5
2022-09-20T17:47:10.547Z,67.5
2022-09-20T17:50:10.534Z,67.5
2022-09-20T17:53:10.541Z,67.5
2022-09-20T17:56:10.533Z,68
2022-09-20T17:59:10.539Z,68
2022-09-20T18:02:10.535Z,68
2022-09-20T18:05:10.541Z,68
2022-09-20T18:08:10.544Z,68
2022-09-20T18:11:10.538Z,68
2022-09-20T18:14:10.547Z,68.5
2022-09-20T18:17:10.541Z,68.5
2022-09-20T18:20:10.528Z,68.5
2022-09-20T18:23:10.547Z,68.5
2022-09-20T18:26:10.536Z,68.5
2022-09-20T18:29:10.546Z,68.5
2022-09-20T18:32:10.546Z,68.5
2022-09-20T18:35:10.545Z,68.5
2022-09-20T18:38:10.542Z,69
2022-09-20T18:41:10.543Z,69
2022-09-20T18:44:10.563Z,69
2022-09-20T18:47:10.544Z,69
2022-09-20T18:50:10.540Z,69
2022-09-20T18:53:10.564Z,69
2022-09-20T18:56:10.547Z,69
2022-09-20T18:59:10.544Z,69
2022-09-20T19:02:10.544Z,69.5
2022-09-20T19:05:10.540Z,69.5
2022-09-20T19:08:10.549Z,69.5
2022-09-20T19:11:10.545Z,69.5
2022-09-20T19:14:10.541Z,69.5
2022-09-20T19:17:10.552Z,69.5
2022-09-20T19:20:10.542Z,69.5
2022-09-20T19:23:10.552Z,69.5
2022-09-20T19:26:10.548Z,69.5
2022-09-20T19:29:10.549Z,69.5
2022-09-20T19:32:10.554Z,69.5
2022-09-20T19:35:10.542Z,69.5
2022-09-20T19:38:10.547Z,69.5
2022-09-20T19:41:10.572Z,69
2022-09-20T19:44:10.537Z,69.5
2022-09-20T19:47:10.552Z,69.5
2022-09-20T19:50:10.549Z,69.5
2022-09-20T19:53:10.549Z,69
2022-09-20T19:56:10.568Z,69
2022-09-20T19:59:10.550Z,69
2022-09-20T20:02:10.554Z,69
2022-09-20T20:05:10.558Z,69
2022-09-20T20:08:10.558Z,69
2022-09-20T20:11:10.576Z,69
2022-09-20T20:14:10.548Z,69
2022-09-20T20:17:10.556Z,69
2022-09-20T20:20:10.558Z,69
2022-09-20T20:23:10.560Z,69
2022-09-20T20:26:10.555Z,69
2022-09-20T20:29:10.559Z,69
2022-09-20T20:32:10.573Z,69
2022-09-20T20:35:10.555Z,69.5
2022-09-20T20:38:10.557Z,69.5
2022-09-20T20:41:10.563Z,69.5
2022-09-20T20:44:10.558Z,69.5
2022-09-20T20:47:10.559Z,69.5
2022-09-20T20:50:10.565Z,69.5
2022-09-20T20:53:10.554Z,69.5
2022-09-20T20:56:10.564Z,69.5
2022-09-20T20:59:10.554Z,69.5
2022-09-20T21:02:10.596Z,69.5
2022-09-20T21:05:10.560Z,69.5
2022-09-20T21:08:10.561Z,70
2022-09-20T21:11:10.564Z,70
2022-09-20T21:14:10.549Z,70
2022-09-20T21:17:10.566Z,70
2022-09-20T21:20:10.564Z,70.5
2022-09-20T21:23:10.556Z,70.5
2022-09-20T21:26:10.562Z,70.5
2022-09-20T21:29:10.545Z,70.5
2022-09-20T21:32:10.562Z,70.5
2022-09-20T21:35:10.565Z,70.5
2022-09-20T21:38:10.563Z,70.5
2022-09-20T21:41:10.584Z,71
2022-09-20T21:44:10.559Z,71
2022-09-20T21:47:10.558Z,71.5
2022-09-20T21:50:10.597Z,71.5
2022-09-20T21:53:10.566Z,71.5
2022-09-20T21:56:10.579Z,71.5
2022-09-20T21:59:10.563Z,71.5
2022-09-20T22:02:10.596Z,71.5
2022-09-20T22:05:10.582Z,71.5
2022-09-20T22:08:10.560Z,71.5
2022-09-20T22:11:14.615Z,71.5
2022-09-20T22:14:10.563Z,71.5
2022-09-20T22:17:10.567Z,71.5
2022-09-20T22:20:10.567Z,72
2022-09-20T22:23:10.571Z,72
2022-09-20T22:26:10.567Z,72
2022-09-20T22:29:10.560Z,72
2022-09-20T22:32:10.591Z,72.5
2022-09-20T22:35:10.573Z,72.5
2022-09-20T22:38:10.562Z,72.5
2022-09-20T22:41:10.575Z,72.5
2022-09-20T22:44:10.569Z,72.5
2022-09-20T22:47:10.570Z,72.5
2022-09-20T22:50:10.578Z,72.5
2022-09-20T22:53:10.568Z,72.5
2022-09-20T22:56:10.588Z,73
2022-09-20T22:59:10.561Z,73
2022-09-20T23:02:10.562Z,73.5
2022-09-20T23:05:10.571Z,73.5
2022-09-20T23:08:10.562Z,73.5
2022-09-20T23:11:10.690Z,73.5
2022-09-20T23:14:10.571Z,73.5
2022-09-20T23:17:10.573Z,73.5
2022-09-20T23:20:10.565Z,73.5
2022-09-20T23:23:10.577Z,73.5
2022-09-20T23:26:10.570Z,73.5
2022-09-20T23:29:10.571Z,73.5
2022-09-20T23:32:10.570Z,73.5
2022-09-20T23:35:10.567Z,74
2022-09-20T23:38:10.568Z,74
2022-09-20T23:41:10.586Z,74
2022-09-20T23:44:10.572Z,74.5
2022-09-20T23:47:10.573Z,74.5
2022-09-20T23:50:10.573Z,74.5
2022-09-20T23:53:10.572Z,74.5
2022-09-20T23:56:10.597Z,74.5
2022-09-20T23:59:10.576Z,74.5
